Terminal Aerodrome Forecast
Issued by NWS

Home | Current Version | Previous Version | Text Only | Print | Product List | Glossary On
Versions: 1 2 3 4 5 6 7 8 9 10 11 12 13 14 15 16 17 18 19 20
000
FTUS43 KDLH 241135
TAFBRD
TAF
KBRD 241135Z 2412/2512 22006KT P6SM BKN090
     FM241400 24006KT 6SM -DZ BKN040 WS020/30035KT
     FM241800 29011G20KT P6SM BKN070
     FM250100 30012KT P6SM FEW100=

USA.gov is the U.S. government's official web portal to all federal, state and local government web resources and services.